sensor_id;sensor_type;location;lat;lon;timestamp;temperature;humidity
19242;DHT22;9755;47.790;9.620;2023-03-11T00:01:03;4.20;99.90
19242;DHT22;9755;47.790;9.620;2023-03-11T00:03:30;4.10;99.90
19242;DHT22;9755;47.790;9.620;2023-03-11T00:06:00;4.10;99.90
19242;DHT22;9755;47.790;9.620;2023-03-11T00:08:27;4.10;99.90
19242;DHT22;9755;47.790;9.620;2023-03-11T00:10:57;4.10;99.90
19242;DHT22;9755;47.790;9.620;2023-03-11T00:13:29;4.00;99.90
19242;DHT22;9755;47.790;9.620;2023-03-11T00:16:02;4.00;99.90
19242;DHT22;9755;47.790;9.620;2023-03-11T00:18:31;4.00;99.90
19242;DHT22;9755;47.790;9.620;2023-03-11T00:20:59;4.00;99.90
19242;DHT22;9755;47.790;9.620;2023-03-11T00:23:26;4.00;99.90
19242;DHT22;9755;47.790;9.620;2023-03-11T00:25:54;4.00;99.90
19242;DHT22;9755;47.790;9.620;2023-03-11T00:28:21;4.00;99.90
19242;DHT22;9755;47.790;9.620;2023-03-11T00:30:55;3.90;99.90
19242;DHT22;9755;47.790;9.620;2023-03-11T00:33:24;3.90;99.90
19242;DHT22;9755;47.790;9.620;2023-03-11T00:35:54;3.90;99.90
19242;DHT22;9755;47.790;9.620;2023-03-11T00:38:21;3.90;99.90
19242;DHT22;9755;47.790;9.620;2023-03-11T00:40:49;3.90;99.90
19242;DHT22;9755;47.790;9.620;2023-03-11T00:43:16;3.90;99.90
19242;DHT22;9755;47.790;9.620;2023-03-11T00:45:43;3.90;99.90
19242;DHT22;9755;47.790;9.620;2023-03-11T00:48:11;3.90;99.90
19242;DHT22;9755;47.790;9.620;2023-03-11T00:50:42;3.90;99.90
19242;DHT22;9755;47.790;9.620;2023-03-11T00:53:10;3.90;99.90
19242;DHT22;9755;47.790;9.620;2023-03-11T00:55:42;3.90;99.90
19242;DHT22;9755;47.790;9.620;2023-03-11T00:58:17;3.90;99.90
19242;DHT22;9755;47.790;9.620;2023-03-11T01:00:44;3.90;99.90
19242;DHT22;9755;47.790;9.620;2023-03-11T01:03:11;3.90;99.90
19242;DHT22;9755;47.790;9.620;2023-03-11T01:05:39;3.80;99.90
19242;DHT22;9755;47.790;9.620;2023-03-11T01:08:06;3.80;99.90
19242;DHT22;9755;47.790;9.620;2023-03-11T01:10:34;3.80;99.90
19242;DHT22;9755;47.790;9.620;2023-03-11T01:13:01;3.80;99.90
19242;DHT22;9755;47.790;9.620;2023-03-11T01:15:31;3.80;99.90
19242;DHT22;9755;47.790;9.620;2023-03-11T01:17:58;3.70;99.90
19242;DHT22;9755;47.790;9.620;2023-03-11T01:20:25;3.70;99.90
19242;DHT22;9755;47.790;9.620;2023-03-11T01:22:54;3.80;99.90
19242;DHT22;9755;47.790;9.620;2023-03-11T01:25:22;3.80;99.90
19242;DHT22;9755;47.790;9.620;2023-03-11T01:27:50;3.80;99.90
19242;DHT22;9755;47.790;9.620;2023-03-11T01:30:18;3.80;99.90
19242;DHT22;9755;47.790;9.620;2023-03-11T01:32:46;3.80;99.90
19242;DHT22;9755;47.790;9.620;2023-03-11T01:35:15;3.80;99.90
19242;DHT22;9755;47.790;9.620;2023-03-11T01:37:42;3.70;99.90
19242;DHT22;9755;47.790;9.620;2023-03-11T01:40:16;3.80;99.90
19242;DHT22;9755;47.790;9.620;2023-03-11T01:42:43;3.80;99.90
19242;DHT22;9755;47.790;9.620;2023-03-11T01:45:32;3.80;99.90
19242;DHT22;9755;47.790;9.620;2023-03-11T01:47:59;3.70;99.90
19242;DHT22;9755;47.790;9.620;2023-03-11T01:50:32;3.70;99.90
19242;DHT22;9755;47.790;9.620;2023-03-11T01:53:01;3.70;99.90
19242;DHT22;9755;47.790;9.620;2023-03-11T01:55:30;3.70;99.90
19242;DHT22;9755;47.790;9.620;2023-03-11T01:57:58;3.70;99.90
19242;DHT22;9755;47.790;9.620;2023-03-11T02:00:26;3.70;99.90
19242;DHT22;9755;47.790;9.620;2023-03-11T02:02:56;3.70;99.90
19242;DHT22;9755;47.790;9.620;2023-03-11T02:05:24;3.70;99.90
19242;DHT22;9755;47.790;9.620;2023-03-11T02:07:52;3.60;99.90
19242;DHT22;9755;47.790;9.620;2023-03-11T02:10:21;3.60;99.90
19242;DHT22;9755;47.790;9.620;2023-03-11T02:12:49;3.50;99.90
19242;DHT22;9755;47.790;9.620;2023-03-11T02:15:17;3.50;99.90
19242;DHT22;9755;47.790;9.620;2023-03-11T02:17:44;3.50;99.90
19242;DHT22;9755;47.790;9.620;2023-03-11T02:20:19;3.50;99.90
19242;DHT22;9755;47.790;9.620;2023-03-11T02:22:48;3.50;99.90
19242;DHT22;9755;47.790;9.620;2023-03-11T02:25:21;3.60;99.90
19242;DHT22;9755;47.790;9.620;2023-03-11T02:27:53;3.60;99.90
19242;DHT22;9755;47.790;9.620;2023-03-11T02:30:22;3.60;99.90
19242;DHT22;9755;47.790;9.620;2023-03-11T02:32:49;3.60;99.90
19242;DHT22;9755;47.790;9.620;2023-03-11T02:35:16;3.60;99.90
19242;DHT22;9755;47.790;9.620;2023-03-11T02:37:45;3.60;99.90
19242;DHT22;9755;47.790;9.620;2023-03-11T02:40:40;3.60;99.90
19242;DHT22;9755;47.790;9.620;2023-03-11T02:43:13;3.60;99.90
19242;DHT22;9755;47.790;9.620;2023-03-11T02:45:43;3.50;99.90
19242;DHT22;9755;47.790;9.620;2023-03-11T02:48:11;3.60;99.90
19242;DHT22;9755;47.790;9.620;2023-03-11T02:50:39;3.60;99.90
19242;DHT22;9755;47.790;9.620;2023-03-11T02:53:07;3.50;99.90
19242;DHT22;9755;47.790;9.620;2023-03-11T02:55:35;3.50;99.90
19242;DHT22;9755;47.790;9.620;2023-03-11T02:58:02;3.50;99.90
19242;DHT22;9755;47.790;9.620;2023-03-11T03:00:30;3.40;99.90
19242;DHT22;9755;47.790;9.620;2023-03-11T03:02:58;3.40;99.90
19242;DHT22;9755;47.790;9.620;2023-03-11T03:05:25;3.40;99.90
19242;DHT22;9755;47.790;9.620;2023-03-11T03:07:52;3.40;99.90
19242;DHT22;9755;47.790;9.620;2023-03-11T03:10:20;3.40;99.90
19242;DHT22;9755;47.790;9.620;2023-03-11T03:12:48;3.40;99.90
19242;DHT22;9755;47.790;9.620;2023-03-11T03:15:15;3.40;99.90
19242;DHT22;9755;47.790;9.620;2023-03-11T03:17:44;3.40;99.90
19242;DHT22;9755;47.790;9.620;2023-03-11T03:20:12;3.40;99.90
19242;DHT22;9755;47.790;9.620;2023-03-11T03:22:41;3.40;99.90
19242;DHT22;9755;47.790;9.620;2023-03-11T03:25:09;3.30;99.90
19242;DHT22;9755;47.790;9.620;2023-03-11T03:27:37;3.40;99.90
19242;DHT22;9755;47.790;9.620;2023-03-11T03:30:05;3.40;99.90
19242;DHT22;9755;47.790;9.620;2023-03-11T03:32:33;3.40;99.90
19242;DHT22;9755;47.790;9.620;2023-03-11T03:35:03;3.40;99.90
19242;DHT22;9755;47.790;9.620;2023-03-11T03:37:32;3.40;99.90
19242;DHT22;9755;47.790;9.620;2023-03-11T03:39:59;3.30;99.90
19242;DHT22;9755;47.790;9.620;2023-03-11T03:42:26;3.30;99.90
19242;DHT22;9755;47.790;9.620;2023-03-11T03:44:54;3.40;99.90
19242;DHT22;9755;47.790;9.620;2023-03-11T03:47:21;3.30;99.90
19242;DHT22;9755;47.790;9.620;2023-03-11T03:49:48;3.30;99.90
19242;DHT22;9755;47.790;9.620;2023-03-11T03:52:16;3.30;99.90
19242;DHT22;9755;47.790;9.620;2023-03-11T03:54:43;3.30;99.90
19242;DHT22;9755;47.790;9.620;2023-03-11T03:57:10;3.30;99.90
19242;DHT22;9755;47.790;9.620;2023-03-11T03:59:37;3.20;99.90
19242;DHT22;9755;47.790;9.620;2023-03-11T04:02:04;3.20;99.90
19242;DHT22;9755;47.790;9.620;2023-03-11T04:04:32;3.20;99.90
19242;DHT22;9755;47.790;9.620;2023-03-11T04:06:59;3.10;99.90
19242;DHT22;9755;47.790;9.620;2023-03-11T04:09:27;3.20;99.90
19242;DHT22;9755;47.790;9.620;2023-03-11T04:11:54;3.20;99.90
19242;DHT22;9755;47.790;9.620;2023-03-11T04:14:21;3.10;99.90
19242;DHT22;9755;47.790;9.620;2023-03-11T04:16:48;3.10;99.90
19242;DHT22;9755;47.790;9.620;2023-03-11T04:19:15;3.10;99.90
19242;DHT22;9755;47.790;9.620;2023-03-11T04:21:42;3.10;99.90
19242;DHT22;9755;47.790;9.620;2023-03-11T04:24:09;3.10;99.90
19242;DHT22;9755;47.790;9.620;2023-03-11T04:26:38;3.00;99.90
19242;DHT22;9755;47.790;9.620;2023-03-11T04:29:05;3.10;99.90
19242;DHT22;9755;47.790;9.620;2023-03-11T04:31:32;3.00;99.90
19242;DHT22;9755;47.790;9.620;2023-03-11T04:33:59;3.00;99.90
19242;DHT22;9755;47.790;9.620;2023-03-11T04:36:26;3.00;99.90
19242;DHT22;9755;47.790;9.620;2023-03-11T04:38:55;3.00;99.90
19242;DHT22;9755;47.790;9.620;2023-03-11T04:41:22;3.00;99.90
19242;DHT22;9755;47.790;9.620;2023-03-11T04:43:51;2.90;99.90
19242;DHT22;9755;47.790;9.620;2023-03-11T04:46:18;2.90;99.90
19242;DHT22;9755;47.790;9.620;2023-03-11T04:48:45;2.80;99.90
19242;DHT22;9755;47.790;9.620;2023-03-11T04:51:12;2.80;99.90
19242;DHT22;9755;47.790;9.620;2023-03-11T04:53:39;2.80;99.90
19242;DHT22;9755;47.790;9.620;2023-03-11T04:56:06;2.70;99.90
19242;DHT22;9755;47.790;9.620;2023-03-11T04:58:34;2.70;99.90
19242;DHT22;9755;47.790;9.620;2023-03-11T05:01:02;2.70;99.90
19242;DHT22;9755;47.790;9.620;2023-03-11T05:03:29;2.60;99.90
19242;DHT22;9755;47.790;9.620;2023-03-11T05:05:56;2.60;99.90
19242;DHT22;9755;47.790;9.620;2023-03-11T05:08:25;2.60;99.90
19242;DHT22;9755;47.790;9.620;2023-03-11T05:10:52;2.60;99.90
19242;DHT22;9755;47.790;9.620;2023-03-11T05:13:19;2.60;99.90
19242;DHT22;9755;47.790;9.620;2023-03-11T05:15:47;2.60;99.90
19242;DHT22;9755;47.790;9.620;2023-03-11T05:18:15;2.60;99.90
19242;DHT22;9755;47.790;9.620;2023-03-11T05:20:42;2.50;99.90
19242;DHT22;9755;47.790;9.620;2023-03-11T05:23:09;2.50;99.90
19242;DHT22;9755;47.790;9.620;2023-03-11T05:25:36;2.50;99.90
19242;DHT22;9755;47.790;9.620;2023-03-11T05:28:04;2.50;99.90
19242;DHT22;9755;47.790;9.620;2023-03-11T05:30:31;2.40;99.90
19242;DHT22;9755;47.790;9.620;2023-03-11T05:32:58;2.40;99.90
19242;DHT22;9755;47.790;9.620;2023-03-11T05:35:26;2.40;99.90
19242;DHT22;9755;47.790;9.620;2023-03-11T05:37:53;2.30;99.90
19242;DHT22;9755;47.790;9.620;2023-03-11T05:40:20;2.30;99.90
19242;DHT22;9755;47.790;9.620;2023-03-11T05:42:47;2.30;99.90
19242;DHT22;9755;47.790;9.620;2023-03-11T05:45:15;2.30;99.90
19242;DHT22;9755;47.790;9.620;2023-03-11T05:47:42;2.30;99.90
19242;DHT22;9755;47.790;9.620;2023-03-11T05:50:10;2.20;99.90
19242;DHT22;9755;47.790;9.620;2023-03-11T05:52:39;2.20;99.90
19242;DHT22;9755;47.790;9.620;2023-03-11T05:55:06;2.30;99.90
19242;DHT22;9755;47.790;9.620;2023-03-11T05:57:36;2.30;99.90
19242;DHT22;9755;47.790;9.620;2023-03-11T06:00:04;2.30;99.90
19242;DHT22;9755;47.790;9.620;2023-03-11T06:02:31;2.30;99.90
19242;DHT22;9755;47.790;9.620;2023-03-11T06:04:58;2.30;99.90
19242;DHT22;9755;47.790;9.620;2023-03-11T06:07:25;2.30;99.90
19242;DHT22;9755;47.790;9.620;2023-03-11T06:09:54;2.30;99.90
19242;DHT22;9755;47.790;9.620;2023-03-11T06:12:21;2.30;99.90
19242;DHT22;9755;47.790;9.620;2023-03-11T06:14:48;2.30;99.90
19242;DHT22;9755;47.790;9.620;2023-03-11T06:17:15;2.30;99.90
19242;DHT22;9755;47.790;9.620;2023-03-11T06:19:42;2.20;99.90
19242;DHT22;9755;47.790;9.620;2023-03-11T06:22:09;2.20;99.90
19242;DHT22;9755;47.790;9.620;2023-03-11T06:24:36;2.20;99.90
19242;DHT22;9755;47.790;9.620;2023-03-11T06:27:05;2.20;99.90
19242;DHT22;9755;47.790;9.620;2023-03-11T06:29:33;2.20;99.90
19242;DHT22;9755;47.790;9.620;2023-03-11T06:32:00;2.20;99.90
19242;DHT22;9755;47.790;9.620;2023-03-11T06:34:27;2.20;99.90
19242;DHT22;9755;47.790;9.620;2023-03-11T06:36:54;2.20;99.90
19242;DHT22;9755;47.790;9.620;2023-03-11T06:39:24;2.10;99.90
19242;DHT22;9755;47.790;9.620;2023-03-11T06:41:51;2.20;99.90
19242;DHT22;9755;47.790;9.620;2023-03-11T06:44:19;2.10;99.90
19242;DHT22;9755;47.790;9.620;2023-03-11T06:46:46;2.20;99.90
19242;DHT22;9755;47.790;9.620;2023-03-11T06:49:13;2.20;99.90
19242;DHT22;9755;47.790;9.620;2023-03-11T06:51:40;2.20;99.90
19242;DHT22;9755;47.790;9.620;2023-03-11T06:54:09;2.10;99.90
19242;DHT22;9755;47.790;9.620;2023-03-11T06:56:36;2.10;99.90
19242;DHT22;9755;47.790;9.620;2023-03-11T06:59:03;2.20;99.90
19242;DHT22;9755;47.790;9.620;2023-03-11T07:01:32;2.20;99.90
19242;DHT22;9755;47.790;9.620;2023-03-11T07:03:59;2.30;99.90
19242;DHT22;9755;47.790;9.620;2023-03-11T07:06:26;2.30;99.90
19242;DHT22;9755;47.790;9.620;2023-03-11T07:08:53;2.30;99.90
19242;DHT22;9755;47.790;9.620;2023-03-11T07:11:22;2.20;99.90
19242;DHT22;9755;47.790;9.620;2023-03-11T07:13:50;2.20;99.90
19242;DHT22;9755;47.790;9.620;2023-03-11T07:16:19;2.20;99.90
19242;DHT22;9755;47.790;9.620;2023-03-11T07:18:49;2.30;99.90
19242;DHT22;9755;47.790;9.620;2023-03-11T07:21:18;2.30;99.90
19242;DHT22;9755;47.790;9.620;2023-03-11T07:23:46;2.40;99.90
19242;DHT22;9755;47.790;9.620;2023-03-11T07:26:15;2.50;99.90
19242;DHT22;9755;47.790;9.620;2023-03-11T07:28:43;2.60;99.90
19242;DHT22;9755;47.790;9.620;2023-03-11T07:31:13;2.60;99.90
19242;DHT22;9755;47.790;9.620;2023-03-11T07:33:40;2.60;99.90
19242;DHT22;9755;47.790;9.620;2023-03-11T07:36:11;2.60;99.90
19242;DHT22;9755;47.790;9.620;2023-03-11T07:38:39;2.70;99.90
19242;DHT22;9755;47.790;9.620;2023-03-11T07:41:07;2.60;99.90
19242;DHT22;9755;47.790;9.620;2023-03-11T07:43:35;2.70;99.90
19242;DHT22;9755;47.790;9.620;2023-03-11T07:46:04;2.70;99.90
19242;DHT22;9755;47.790;9.620;2023-03-11T07:48:33;2.70;99.90
19242;DHT22;9755;47.790;9.620;2023-03-11T07:51:02;2.80;99.90
19242;DHT22;9755;47.790;9.620;2023-03-11T07:53:31;2.80;99.90
19242;DHT22;9755;47.790;9.620;2023-03-11T07:55:58;2.80;99.90
19242;DHT22;9755;47.790;9.620;2023-03-11T07:58:26;2.90;99.90
19242;DHT22;9755;47.790;9.620;2023-03-11T08:00:53;3.00;99.90
19242;DHT22;9755;47.790;9.620;2023-03-11T08:03:21;3.00;99.90
19242;DHT22;9755;47.790;9.620;2023-03-11T08:05:49;3.00;99.90
19242;DHT22;9755;47.790;9.620;2023-03-11T08:08:17;3.00;99.90
19242;DHT22;9755;47.790;9.620;2023-03-11T08:10:45;3.10;99.90
19242;DHT22;9755;47.790;9.620;2023-03-11T08:13:12;3.20;99.90
19242;DHT22;9755;47.790;9.620;2023-03-11T08:15:39;3.10;99.90
19242;DHT22;9755;47.790;9.620;2023-03-11T08:18:06;3.00;99.90
19242;DHT22;9755;47.790;9.620;2023-03-11T08:20:33;3.00;99.90
19242;DHT22;9755;47.790;9.620;2023-03-11T08:23:02;3.00;99.90
19242;DHT22;9755;47.790;9.620;2023-03-11T08:25:30;3.00;99.90
19242;DHT22;9755;47.790;9.620;2023-03-11T08:27:58;3.10;99.90
19242;DHT22;9755;47.790;9.620;2023-03-11T08:30:25;3.20;99.90
19242;DHT22;9755;47.790;9.620;2023-03-11T08:32:52;3.20;99.90
19242;DHT22;9755;47.790;9.620;2023-03-11T08:35:19;3.20;99.90
19242;DHT22;9755;47.790;9.620;2023-03-11T08:37:46;3.30;99.90
19242;DHT22;9755;47.790;9.620;2023-03-11T08:40:13;3.30;99.90
19242;DHT22;9755;47.790;9.620;2023-03-11T08:42:40;3.40;99.90
19242;DHT22;9755;47.790;9.620;2023-03-11T08:45:11;3.60;99.90
19242;DHT22;9755;47.790;9.620;2023-03-11T08:47:39;3.80;99.90
19242;DHT22;9755;47.790;9.620;2023-03-11T08:50:08;4.00;99.90
19242;DHT22;9755;47.790;9.620;2023-03-11T08:52:37;4.20;99.90
19242;DHT22;9755;47.790;9.620;2023-03-11T08:55:05;4.20;99.90
19242;DHT22;9755;47.790;9.620;2023-03-11T08:57:33;4.30;99.90
19242;DHT22;9755;47.790;9.620;2023-03-11T09:00:03;4.30;98.60
19242;DHT22;9755;47.790;9.620;2023-03-11T09:02:33;4.40;99.00
19242;DHT22;9755;47.790;9.620;2023-03-11T09:05:00;4.30;98.30
19242;DHT22;9755;47.790;9.620;2023-03-11T09:07:30;4.30;99.40
19242;DHT22;9755;47.790;9.620;2023-03-11T09:09:57;4.50;99.00
19242;DHT22;9755;47.790;9.620;2023-03-11T09:12:24;4.80;98.50
19242;DHT22;9755;47.790;9.620;2023-03-11T09:14:51;4.90;96.90
19242;DHT22;9755;47.790;9.620;2023-03-11T09:17:19;4.80;94.90
19242;DHT22;9755;47.790;9.620;2023-03-11T09:19:48;5.20;97.00
19242;DHT22;9755;47.790;9.620;2023-03-11T09:22:15;5.60;95.50
19242;DHT22;9755;47.790;9.620;2023-03-11T09:24:42;5.60;94.40
19242;DHT22;9755;47.790;9.620;2023-03-11T09:27:09;5.70;94.30
19242;DHT22;9755;47.790;9.620;2023-03-11T09:29:37;5.80;92.50
19242;DHT22;9755;47.790;9.620;2023-03-11T09:32:05;6.20;93.90
19242;DHT22;9755;47.790;9.620;2023-03-11T09:34:32;6.60;92.90
19242;DHT22;9755;47.790;9.620;2023-03-11T09:37:01;6.90;92.20
19242;DHT22;9755;47.790;9.620;2023-03-11T09:39:28;6.90;90.40
19242;DHT22;9755;47.790;9.620;2023-03-11T09:41:57;7.20;86.70
19242;DHT22;9755;47.790;9.620;2023-03-11T09:44:28;6.70;84.70
19242;DHT22;9755;47.790;9.620;2023-03-11T09:47:18;6.90;85.30
19242;DHT22;9755;47.790;9.620;2023-03-11T09:50:05;6.20;87.10
19242;DHT22;9755;47.790;9.620;2023-03-11T09:52:43;5.60;88.70
19242;DHT22;9755;47.790;9.620;2023-03-11T09:55:28;5.80;88.40
19242;DHT22;9755;47.790;9.620;2023-03-11T09:57:59;6.40;86.20
19242;DHT22;9755;47.790;9.620;2023-03-11T10:00:28;7.50;87.20
19242;DHT22;9755;47.790;9.620;2023-03-11T10:02:55;8.90;82.20
19242;DHT22;9755;47.790;9.620;2023-03-11T10:05:24;10.30;70.40
19242;DHT22;9755;47.790;9.620;2023-03-11T10:07:58;12.10;66.80
19242;DHT22;9755;47.790;9.620;2023-03-11T10:10:29;13.50;57.20
19242;DHT22;9755;47.790;9.620;2023-03-11T10:13:03;15.00;54.40
19242;DHT22;9755;47.790;9.620;2023-03-11T10:15:40;15.30;47.60
19242;DHT22;9755;47.790;9.620;2023-03-11T10:18:45;15.90;45.70
19242;DHT22;9755;47.790;9.620;2023-03-11T10:21:23;15.70;41.10
19242;DHT22;9755;47.790;9.620;2023-03-11T10:24:05;14.40;38.80
19242;DHT22;9755;47.790;9.620;2023-03-11T10:26:38;14.60;40.30
19242;DHT22;9755;47.790;9.620;2023-03-11T10:29:15;14.80;40.00
19242;DHT22;9755;47.790;9.620;2023-03-11T10:31:47;14.70;36.50
19242;DHT22;9755;47.790;9.620;2023-03-11T10:34:19;13.00;35.00
19242;DHT22;9755;47.790;9.620;2023-03-11T10:36:56;13.40;39.10
19242;DHT22;9755;47.790;9.620;2023-03-11T10:39:26;12.90;38.30
19242;DHT22;9755;47.790;9.620;2023-03-11T10:41:55;13.80;40.60
19242;DHT22;9755;47.790;9.620;2023-03-11T10:44:27;15.30;40.30
19242;DHT22;9755;47.790;9.620;2023-03-11T10:46:55;16.40;37.60
19242;DHT22;9755;47.790;9.620;2023-03-11T10:49:22;15.80;35.10
19242;DHT22;9755;47.790;9.620;2023-03-11T10:51:50;15.60;35.90
19242;DHT22;9755;47.790;9.620;2023-03-11T10:54:23;15.80;30.90
19242;DHT22;9755;47.790;9.620;2023-03-11T10:56:56;16.10;33.20
19242;DHT22;9755;47.790;9.620;2023-03-11T10:59:26;17.00;33.00
19242;DHT22;9755;47.790;9.620;2023-03-11T11:01:55;17.40;31.10
19242;DHT22;9755;47.790;9.620;2023-03-11T11:04:30;17.40;32.00
19242;DHT22;9755;47.790;9.620;2023-03-11T11:07:20;16.60;30.80
19242;DHT22;9755;47.790;9.620;2023-03-11T11:10:14;13.20;27.60
19242;DHT22;9755;47.790;9.620;2023-03-11T11:12:58;10.60;34.20
19242;DHT22;9755;47.790;9.620;2023-03-11T11:15:27;11.10;32.50
19242;DHT22;9755;47.790;9.620;2023-03-11T11:17:57;11.20;34.40
19242;DHT22;9755;47.790;9.620;2023-03-11T11:20:26;12.30;33.60
19242;DHT22;9755;47.790;9.620;2023-03-11T11:22:55;12.80;33.00
19242;DHT22;9755;47.790;9.620;2023-03-11T11:25:27;12.50;35.10
19242;DHT22;9755;47.790;9.620;2023-03-11T11:27:58;13.70;34.90
19242;DHT22;9755;47.790;9.620;2023-03-11T11:30:26;15.20;33.80
19242;DHT22;9755;47.790;9.620;2023-03-11T11:32:53;13.40;31.30
19242;DHT22;9755;47.790;9.620;2023-03-11T11:35:22;14.20;35.00
19242;DHT22;9755;47.790;9.620;2023-03-11T11:37:51;14.60;32.50
19242;DHT22;9755;47.790;9.620;2023-03-11T11:40:25;14.00;32.80
19242;DHT22;9755;47.790;9.620;2023-03-11T11:42:55;14.20;33.00
19242;DHT22;9755;47.790;9.620;2023-03-11T11:45:36;14.00;32.70
19242;DHT22;9755;47.790;9.620;2023-03-11T11:48:11;14.90;31.30
19242;DHT22;9755;47.790;9.620;2023-03-11T11:50:43;16.00;33.20
19242;DHT22;9755;47.790;9.620;2023-03-11T11:53:25;15.10;29.80
19242;DHT22;9755;47.790;9.620;2023-03-11T11:55:54;15.30;34.20
19242;DHT22;9755;47.790;9.620;2023-03-11T11:58:21;15.80;32.20
19242;DHT22;9755;47.790;9.620;2023-03-11T12:00:57;16.30;33.80
19242;DHT22;9755;47.790;9.620;2023-03-11T12:03:53;15.10;32.40
19242;DHT22;9755;47.790;9.620;2023-03-11T12:06:26;13.90;34.20
19242;DHT22;9755;47.790;9.620;2023-03-11T12:09:02;13.30;36.10
19242;DHT22;9755;47.790;9.620;2023-03-11T12:11:37;12.00;35.30
19242;DHT22;9755;47.790;9.620;2023-03-11T12:14:11;12.40;37.30
19242;DHT22;9755;47.790;9.620;2023-03-11T12:16:48;12.60;35.90
19242;DHT22;9755;47.790;9.620;2023-03-11T12:19:21;12.80;36.90
19242;DHT22;9755;47.790;9.620;2023-03-11T12:22:30;12.50;36.60
19242;DHT22;9755;47.790;9.620;2023-03-11T12:25:15;13.40;36.90
19242;DHT22;9755;47.790;9.620;2023-03-11T12:27:49;13.80;37.30
19242;DHT22;9755;47.790;9.620;2023-03-11T12:30:20;11.80;36.00
19242;DHT22;9755;47.790;9.620;2023-03-11T12:32:52;10.80;37.40
19242;DHT22;9755;47.790;9.620;2023-03-11T12:35:23;10.20;41.20
19242;DHT22;9755;47.790;9.620;2023-03-11T12:37:58;10.70;40.30
19242;DHT22;9755;47.790;9.620;2023-03-11T12:40:46;10.20;40.00
19242;DHT22;9755;47.790;9.620;2023-03-11T12:46:14;10.40;41.30
19242;DHT22;9755;47.790;9.620;2023-03-11T12:48:44;10.20;41.60
19242;DHT22;9755;47.790;9.620;2023-03-11T12:51:39;10.30;41.90
19242;DHT22;9755;47.790;9.620;2023-03-11T12:54:28;11.70;41.50
19242;DHT22;9755;47.790;9.620;2023-03-11T12:56:58;11.80;37.40
19242;DHT22;9755;47.790;9.620;2023-03-11T12:59:51;10.50;37.30
19242;DHT22;9755;47.790;9.620;2023-03-11T13:02:35;10.90;37.30
19242;DHT22;9755;47.790;9.620;2023-03-11T13:05:15;11.30;38.10
19242;DHT22;9755;47.790;9.620;2023-03-11T13:07:47;11.60;38.40
19242;DHT22;9755;47.790;9.620;2023-03-11T13:13:31;12.30;37.10
19242;DHT22;9755;47.790;9.620;2023-03-11T13:16:37;12.00;40.10
19242;DHT22;9755;47.790;9.620;2023-03-11T13:19:33;11.90;38.10
19242;DHT22;9755;47.790;9.620;2023-03-11T13:22:03;11.10;36.60
19242;DHT22;9755;47.790;9.620;2023-03-11T13:24:49;10.60;36.80
19242;DHT22;9755;47.790;9.620;2023-03-11T13:27:31;9.90;37.10
19242;DHT22;9755;47.790;9.620;2023-03-11T13:30:09;9.20;39.60
19242;DHT22;9755;47.790;9.620;2023-03-11T13:33:11;9.60;41.90
19242;DHT22;9755;47.790;9.620;2023-03-11T13:35:58;10.70;41.30
19242;DHT22;9755;47.790;9.620;2023-03-11T13:41:33;10.00;40.80
19242;DHT22;9755;47.790;9.620;2023-03-11T13:44:11;9.80;42.50
19242;DHT22;9755;47.790;9.620;2023-03-11T13:46:41;10.40;42.00
19242;DHT22;9755;47.790;9.620;2023-03-11T13:49:18;10.50;41.30
19242;DHT22;9755;47.790;9.620;2023-03-11T13:51:49;10.50;41.40
19242;DHT22;9755;47.790;9.620;2023-03-11T13:54:31;9.90;41.50
19242;DHT22;9755;47.790;9.620;2023-03-11T13:57:01;9.80;42.50
19242;DHT22;9755;47.790;9.620;2023-03-11T13:59:30;9.90;42.30
19242;DHT22;9755;47.790;9.620;2023-03-11T14:02:00;9.70;42.30
19242;DHT22;9755;47.790;9.620;2023-03-11T14:04:29;9.80;43.30
19242;DHT22;9755;47.790;9.620;2023-03-11T14:06:57;9.50;43.50
19242;DHT22;9755;47.790;9.620;2023-03-11T14:09:27;9.80;44.10
19242;DHT22;9755;47.790;9.620;2023-03-11T14:12:02;9.80;43.50
19242;DHT22;9755;47.790;9.620;2023-03-11T14:14:44;9.50;44.90
19242;DHT22;9755;47.790;9.620;2023-03-11T14:17:15;9.20;43.80
19242;DHT22;9755;47.790;9.620;2023-03-11T14:19:42;8.90;45.10
19242;DHT22;9755;47.790;9.620;2023-03-11T14:22:09;8.80;45.70
19242;DHT22;9755;47.790;9.620;2023-03-11T14:24:38;9.10;47.40
19242;DHT22;9755;47.790;9.620;2023-03-11T14:27:08;9.20;48.00
19242;DHT22;9755;47.790;9.620;2023-03-11T14:29:36;8.40;49.30
19242;DHT22;9755;47.790;9.620;2023-03-11T14:32:24;8.10;51.20
19242;DHT22;9755;47.790;9.620;2023-03-11T14:34:51;7.80;53.00
19242;DHT22;9755;47.790;9.620;2023-03-11T14:37:25;7.70;57.50
19242;DHT22;9755;47.790;9.620;2023-03-11T14:39:54;8.00;57.90
19242;DHT22;9755;47.790;9.620;2023-03-11T14:42:23;8.00;58.10
19242;DHT22;9755;47.790;9.620;2023-03-11T14:44:56;8.00;60.00
19242;DHT22;9755;47.790;9.620;2023-03-11T14:47:34;7.80;62.40
19242;DHT22;9755;47.790;9.620;2023-03-11T14:50:03;7.90;65.30
19242;DHT22;9755;47.790;9.620;2023-03-11T14:52:34;7.80;65.00
19242;DHT22;9755;47.790;9.620;2023-03-11T14:55:06;7.60;67.50
19242;DHT22;9755;47.790;9.620;2023-03-11T14:57:37;7.40;71.70
19242;DHT22;9755;47.790;9.620;2023-03-11T15:00:12;7.60;71.20
19242;DHT22;9755;47.790;9.620;2023-03-11T15:02:44;7.40;75.00
19242;DHT22;9755;47.790;9.620;2023-03-11T15:05:18;7.10;77.00
19242;DHT22;9755;47.790;9.620;2023-03-11T15:07:47;6.80;81.00
19242;DHT22;9755;47.790;9.620;2023-03-11T15:10:17;6.70;85.90
19242;DHT22;9755;47.790;9.620;2023-03-11T15:12:44;6.90;87.40
19242;DHT22;9755;47.790;9.620;2023-03-11T15:15:22;7.10;87.50
19242;DHT22;9755;47.790;9.620;2023-03-11T15:17:53;7.20;87.60
19242;DHT22;9755;47.790;9.620;2023-03-11T15:20:25;7.10;89.50
19242;DHT22;9755;47.790;9.620;2023-03-11T15:22:55;7.20;89.50
19242;DHT22;9755;47.790;9.620;2023-03-11T15:25:29;7.20;90.30
19242;DHT22;9755;47.790;9.620;2023-03-11T15:27:56;7.10;90.20
19242;DHT22;9755;47.790;9.620;2023-03-11T15:30:25;7.00;90.50
19242;DHT22;9755;47.790;9.620;2023-03-11T15:32:53;6.90;90.90
19242;DHT22;9755;47.790;9.620;2023-03-11T15:35:21;6.90;91.30
19242;DHT22;9755;47.790;9.620;2023-03-11T15:38:09;6.50;91.90
19242;DHT22;9755;47.790;9.620;2023-03-11T15:40:39;6.60;92.60
19242;DHT22;9755;47.790;9.620;2023-03-11T15:43:22;6.60;93.10
19242;DHT22;9755;47.790;9.620;2023-03-11T15:45:50;6.60;93.40
19242;DHT22;9755;47.790;9.620;2023-03-11T15:48:19;6.30;93.40
19242;DHT22;9755;47.790;9.620;2023-03-11T15:50:47;6.20;93.80
19242;DHT22;9755;47.790;9.620;2023-03-11T15:53:14;6.20;94.40
19242;DHT22;9755;47.790;9.620;2023-03-11T15:55:43;6.00;94.70
19242;DHT22;9755;47.790;9.620;2023-03-11T15:58:11;6.00;95.40
19242;DHT22;9755;47.790;9.620;2023-03-11T16:00:42;6.00;96.00
19242;DHT22;9755;47.790;9.620;2023-03-11T16:03:11;6.00;96.10
19242;DHT22;9755;47.790;9.620;2023-03-11T16:05:38;5.90;96.30
19242;DHT22;9755;47.790;9.620;2023-03-11T16:08:05;6.00;96.90
19242;DHT22;9755;47.790;9.620;2023-03-11T16:10:32;5.80;96.80
19242;DHT22;9755;47.790;9.620;2023-03-11T16:13:00;5.80;97.40
19242;DHT22;9755;47.790;9.620;2023-03-11T16:15:29;5.80;98.20
19242;DHT22;9755;47.790;9.620;2023-03-11T16:17:59;5.70;97.90
19242;DHT22;9755;47.790;9.620;2023-03-11T16:20:28;5.40;98.70
19242;DHT22;9755;47.790;9.620;2023-03-11T16:22:57;5.40;99.10
19242;DHT22;9755;47.790;9.620;2023-03-11T16:25:28;5.50;99.90
19242;DHT22;9755;47.790;9.620;2023-03-11T16:27:57;5.50;99.50